createdAt,value
2023-04-08T00:01:07.861Z,72.95
2023-04-08T00:03:37.239Z,72.71
2023-04-08T00:06:05.497Z,73.07
2023-04-08T00:08:33.343Z,73.03
2023-04-08T00:11:04.042Z,73.00
2023-04-08T00:13:32.000Z,72.96
2023-04-08T00:15:59.922Z,73.02
2023-04-08T00:18:28.384Z,72.92
2023-04-08T00:20:58.246Z,72.81
2023-04-08T00:23:26.038Z,72.90
2023-04-08T00:25:53.873Z,72.92
2023-04-08T00:28:21.929Z,73.06
2023-04-08T00:30:49.772Z,72.78
2023-04-08T00:33:17.857Z,72.77
2023-04-08T00:35:46.313Z,72.77
2023-04-08T00:38:15.590Z,72.67
2023-04-08T00:40:43.672Z,73.10
2023-04-08T00:43:11.593Z,73.11
2023-04-08T00:45:39.511Z,72.94
2023-04-08T00:48:07.480Z,73.01
2023-04-08T00:50:35.448Z,73.08
2023-04-08T00:53:03.250Z,72.90
2023-04-08T00:55:32.572Z,72.94
2023-04-08T00:58:00.776Z,73.09
2023-04-08T01:00:30.406Z,72.79
2023-04-08T01:03:07.127Z,72.94
2023-04-08T01:05:51.169Z,72.95
2023-04-08T01:08:19.832Z,72.85
2023-04-08T01:10:52.180Z,73.11
2023-04-08T01:13:23.424Z,72.75
2023-04-08T01:15:51.622Z,73.00
2023-04-08T01:18:20.659Z,73.01
2023-04-08T01:20:50.831Z,72.92
2023-04-08T01:23:24.371Z,73.10
2023-04-08T01:25:54.786Z,73.00
2023-04-08T01:28:26.244Z,72.99
2023-04-08T01:30:56.640Z,72.93
2023-04-08T01:33:25.863Z,72.98
2023-04-08T01:35:55.944Z,73.24
2023-04-08T01:38:25.999Z,72.94
2023-04-08T01:40:57.000Z,72.97
2023-04-08T01:43:27.108Z,73.01
2023-04-08T01:45:58.593Z,72.77
2023-04-08T01:48:28.201Z,73.10
2023-04-08T01:50:58.239Z,73.13
2023-04-08T01:53:26.372Z,72.89
2023-04-08T01:56:02.934Z,73.03
2023-04-08T01:58:34.226Z,73.02
2023-04-08T02:01:02.653Z,72.98
2023-04-08T02:03:31.884Z,73.10
2023-04-08T02:06:01.020Z,72.92
2023-04-08T02:08:28.795Z,73.37
2023-04-08T02:10:57.992Z,72.89
2023-04-08T02:13:26.033Z,73.00
2023-04-08T02:16:03.605Z,73.18
2023-04-08T02:18:33.392Z,72.83
2023-04-08T02:21:09.741Z,72.84
2023-04-08T02:23:39.866Z,72.90
2023-04-08T02:26:15.099Z,73.00
2023-04-08T02:28:43.902Z,73.30
2023-04-08T02:31:13.839Z,73.15
2023-04-08T02:33:42.624Z,73.06
2023-04-08T02:36:12.239Z,72.89
2023-04-08T02:38:40.749Z,73.14
2023-04-08T02:41:09.954Z,73.06
2023-04-08T02:43:37.958Z,73.22
2023-04-08T02:46:05.969Z,72.99
2023-04-08T02:48:34.018Z,72.95
2023-04-08T02:51:04.423Z,73.22
2023-04-08T02:53:32.786Z,72.91
2023-04-08T02:56:00.711Z,73.21
2023-04-08T02:58:29.978Z,73.30
2023-04-08T03:00:57.917Z,73.18
2023-04-08T03:03:29.673Z,73.03
2023-04-08T03:05:58.231Z,73.22
2023-04-08T03:08:26.470Z,73.06
2023-04-08T03:10:54.614Z,73.07
2023-04-08T03:13:22.376Z,73.39
2023-04-08T03:15:51.736Z,73.33
2023-04-08T03:18:19.615Z,73.15
2023-04-08T03:20:47.520Z,72.84
2023-04-08T03:23:15.361Z,73.08
2023-04-08T03:25:43.160Z,73.25
2023-04-08T03:28:11.066Z,72.92
2023-04-08T03:30:39.112Z,72.92
2023-04-08T03:33:08.922Z,73.03
2023-04-08T03:35:37.504Z,72.94
2023-04-08T03:38:05.474Z,73.13
2023-04-08T03:40:33.288Z,73.00
2023-04-08T03:43:01.181Z,73.12
2023-04-08T03:45:29.063Z,72.86
2023-04-08T03:47:56.943Z,73.23
2023-04-08T03:50:26.192Z,73.33
2023-04-08T03:52:54.042Z,72.78
2023-04-08T03:55:21.782Z,73.32
2023-04-08T03:57:49.684Z,72.89
2023-04-08T04:00:17.695Z,73.06
2023-04-08T04:02:45.513Z,73.03
2023-04-08T04:05:13.348Z,72.85
2023-04-08T04:07:42.552Z,72.89
2023-04-08T04:10:11.944Z,72.84
2023-04-08T04:12:39.839Z,73.02
2023-04-08T04:15:08.815Z,72.56
2023-04-08T04:17:36.711Z,72.62
2023-04-08T04:20:05.736Z,72.72
2023-04-08T04:22:33.712Z,73.00
2023-04-08T04:25:03.062Z,72.62
2023-04-08T04:27:30.989Z,72.65
2023-04-08T04:29:58.750Z,72.91
2023-04-08T04:32:26.592Z,72.56
2023-04-08T04:34:54.435Z,72.94
2023-04-08T04:37:22.482Z,72.85
2023-04-08T04:39:50.561Z,72.62
2023-04-08T04:42:19.756Z,73.02
2023-04-08T04:44:47.959Z,72.71
2023-04-08T04:47:16.492Z,72.82
2023-04-08T04:49:45.721Z,72.50
2023-04-08T04:52:13.599Z,72.61
2023-04-08T04:54:41.428Z,73.01
2023-04-08T04:57:09.220Z,72.54
2023-04-08T04:59:38.503Z,72.94
2023-04-08T05:02:06.450Z,72.76
2023-04-08T05:04:34.469Z,72.59
2023-04-08T05:07:02.368Z,72.85
2023-04-08T05:09:30.884Z,73.00
2023-04-08T05:11:59.328Z,72.53
2023-04-08T05:14:30.425Z,72.74
2023-04-08T05:16:59.827Z,72.94
2023-04-08T05:19:27.656Z,72.88
2023-04-08T05:21:55.454Z,72.86
2023-04-08T05:24:23.321Z,72.76
2023-04-08T05:26:53.330Z,73.14
2023-04-08T05:29:22.181Z,73.22
2023-04-08T05:31:50.521Z,73.06
2023-04-08T05:34:23.043Z,73.41
2023-04-08T05:36:52.872Z,73.16
2023-04-08T05:39:20.938Z,73.22
2023-04-08T05:41:48.826Z,73.09
2023-04-08T05:44:16.677Z,73.32
2023-04-08T05:46:44.596Z,73.22
2023-04-08T05:49:13.197Z,73.67
2023-04-08T05:51:42.569Z,73.57
2023-04-08T05:54:10.359Z,73.69
2023-04-08T05:56:38.172Z,74.07
2023-04-08T05:59:06.151Z,73.80
2023-04-08T06:01:34.141Z,73.84
2023-04-08T06:04:02.368Z,74.24
2023-04-08T06:06:30.440Z,74.00
2023-04-08T06:08:59.604Z,74.03
2023-04-08T06:11:27.428Z,73.82
2023-04-08T06:13:55.425Z,74.07
2023-04-08T06:16:23.350Z,74.41
2023-04-08T06:18:52.285Z,73.95
2023-04-08T06:21:20.441Z,74.04
2023-04-08T06:23:48.360Z,73.78
2023-04-08T06:26:18.109Z,74.03
2023-04-08T06:28:45.871Z,74.04
2023-04-08T06:31:13.719Z,74.12
2023-04-08T06:33:41.494Z,74.08
2023-04-08T06:36:09.645Z,73.97
2023-04-08T06:38:37.565Z,74.05
2023-04-08T06:41:06.418Z,74.30
2023-04-08T06:43:37.989Z,74.00
2023-04-08T06:46:06.493Z,74.31
2023-04-08T06:48:34.395Z,74.18
2023-04-08T06:51:02.339Z,74.45
2023-04-08T06:53:31.355Z,74.22
2023-04-08T06:55:59.700Z,74.45
2023-04-08T06:58:27.677Z,74.56
2023-04-08T07:00:57.472Z,74.59
2023-04-08T07:03:25.313Z,74.55
2023-04-08T07:05:53.678Z,74.50
2023-04-08T07:08:21.673Z,74.56
2023-04-08T07:10:49.792Z,74.12
2023-04-08T07:13:17.683Z,74.41
2023-04-08T07:15:45.472Z,74.07
2023-04-08T07:18:14.833Z,74.57
2023-04-08T07:20:42.821Z,74.30
2023-04-08T07:23:10.842Z,73.99
2023-04-08T07:25:38.791Z,74.31
2023-04-08T07:28:06.591Z,74.22
2023-04-08T07:30:34.445Z,74.26
2023-04-08T07:33:02.395Z,73.93
2023-04-08T07:35:32.064Z,74.12
2023-04-08T07:38:00.157Z,74.07
2023-04-08T07:40:27.960Z,74.15
2023-04-08T07:42:56.048Z,73.95
2023-04-08T07:45:23.933Z,74.13
2023-04-08T07:47:51.726Z,74.08
2023-04-08T07:50:19.807Z,74.02
2023-04-08T07:52:48.924Z,73.93
2023-04-08T07:55:16.800Z,73.91
2023-04-08T07:57:44.912Z,73.93
2023-04-08T08:00:20.827Z,73.78
2023-04-08T08:02:49.364Z,73.93
2023-04-08T08:05:17.425Z,73.82
2023-04-08T08:07:45.303Z,73.40
2023-04-08T08:10:14.519Z,73.85
2023-04-08T08:12:42.333Z,73.52
2023-04-08T08:15:11.461Z,73.24
2023-04-08T08:17:39.251Z,73.37
2023-04-08T08:20:08.497Z,73.36
2023-04-08T08:22:47.123Z,73.35
2023-04-08T08:25:26.879Z,73.14
2023-04-08T08:27:55.518Z,73.31
2023-04-08T08:30:23.499Z,73.08
2023-04-08T08:32:52.280Z,72.93
2023-04-08T08:35:20.468Z,73.47
2023-04-08T08:37:48.876Z,73.03
2023-04-08T08:40:16.929Z,73.00
2023-04-08T08:42:52.432Z,72.73
2023-04-08T08:45:20.891Z,72.82
2023-04-08T08:47:51.005Z,72.69
2023-04-08T08:50:19.765Z,72.67
2023-04-08T08:52:49.997Z,72.58
2023-04-08T08:55:35.085Z,72.60
2023-04-08T08:58:10.149Z,72.53
2023-04-08T09:00:39.198Z,72.43
2023-04-08T09:03:21.344Z,72.41
2023-04-08T09:05:50.920Z,71.94
2023-04-08T09:08:27.260Z,71.83
2023-04-08T09:10:55.476Z,71.85
2023-04-08T09:13:25.668Z,71.92
2023-04-08T09:16:05.163Z,71.72
2023-04-08T09:18:34.871Z,71.73
2023-04-08T09:21:04.022Z,71.58
2023-04-08T09:23:42.920Z,71.47
2023-04-08T09:26:12.895Z,71.42
2023-04-08T09:28:58.845Z,71.46
2023-04-08T09:31:28.425Z,71.34
2023-04-08T09:33:57.497Z,71.19
2023-04-08T09:36:26.652Z,71.13
2023-04-08T09:38:54.926Z,70.98
2023-04-08T09:41:24.322Z,70.72
2023-04-08T09:43:56.878Z,70.68
2023-04-08T09:46:28.549Z,70.56
2023-04-08T09:49:07.967Z,70.58
2023-04-08T09:51:41.811Z,70.05
2023-04-08T09:54:15.732Z,70.10
2023-04-08T09:56:48.153Z,69.92
2023-04-08T09:59:21.589Z,69.85
2023-04-08T10:01:55.030Z,69.81
2023-04-08T10:04:26.623Z,69.77
2023-04-08T10:06:58.479Z,69.53
2023-04-08T10:09:28.072Z,69.66
2023-04-08T10:11:56.912Z,69.16
2023-04-08T10:14:28.707Z,68.94
2023-04-08T10:17:27.661Z,68.94
2023-04-08T10:19:55.792Z,68.71
2023-04-08T10:22:49.227Z,68.35
2023-04-08T10:25:33.907Z,68.39
2023-04-08T10:28:03.435Z,68.25
2023-04-08T10:30:46.342Z,67.90
2023-04-08T10:33:16.570Z,67.81
2023-04-08T10:35:48.512Z,67.41
2023-04-08T10:38:17.727Z,67.48
2023-04-08T10:40:46.018Z,67.15
2023-04-08T10:43:16.161Z,67.00
2023-04-08T10:45:48.610Z,66.97
2023-04-08T10:48:19.009Z,66.60
2023-04-08T10:50:54.918Z,66.60
2023-04-08T10:53:28.348Z,65.83
2023-04-08T10:55:56.640Z,65.74
2023-04-08T10:58:24.514Z,65.45
2023-04-08T11:00:53.777Z,65.42
2023-04-08T11:03:21.806Z,65.49
2023-04-08T11:05:50.980Z,65.20
2023-04-08T11:08:20.928Z,64.94
2023-04-08T11:10:49.574Z,64.57
2023-04-08T11:13:17.586Z,64.44
2023-04-08T11:15:45.645Z,64.30
2023-04-08T11:18:15.089Z,64.09
2023-04-08T11:20:45.408Z,64.04
2023-04-08T11:23:14.871Z,63.92
2023-04-08T11:25:43.780Z,63.69
2023-04-08T11:28:14.768Z,63.02
2023-04-08T11:30:43.441Z,63.01
2023-04-08T11:33:11.719Z,63.07
2023-04-08T11:35:43.128Z,62.78
2023-04-08T11:38:11.201Z,62.75
2023-04-08T11:40:39.417Z,62.33
2023-04-08T11:43:10.885Z,62.22
2023-04-08T11:45:40.327Z,62.41
2023-04-08T11:48:11.992Z,62.03
2023-04-08T11:50:39.931Z,62.05
2023-04-08T11:53:19.723Z,61.31
2023-04-08T11:55:48.550Z,61.57
2023-04-08T11:58:16.896Z,61.06
2023-04-08T12:00:45.735Z,61.22
2023-04-08T12:03:14.186Z,60.60
2023-04-08T12:05:42.624Z,60.52
2023-04-08T12:08:37.353Z,60.01
2023-04-08T12:11:18.821Z,59.69
2023-04-08T12:13:50.218Z,59.86
2023-04-08T12:16:18.702Z,59.51
2023-04-08T12:18:46.784Z,59.26
2023-04-08T12:21:15.169Z,59.06
2023-04-08T12:23:44.580Z,59.12
2023-04-08T12:26:13.319Z,58.93
2023-04-08T12:28:41.522Z,58.77
2023-04-08T12:31:09.398Z,58.08
2023-04-08T12:33:37.216Z,58.25
2023-04-08T12:36:05.219Z,57.96
2023-04-08T12:38:33.561Z,57.98
2023-04-08T12:41:02.831Z,57.58
2023-04-08T12:43:32.722Z,57.26
2023-04-08T12:46:01.689Z,57.53
2023-04-08T12:48:29.509Z,56.94
2023-04-08T12:50:58.824Z,56.95
2023-04-08T12:53:26.666Z,56.50
2023-04-08T12:55:57.194Z,56.58
2023-04-08T12:58:26.528Z,56.38
2023-04-08T13:00:54.535Z,56.15
2023-04-08T13:03:22.891Z,55.78
2023-04-08T13:05:51.111Z,55.77
2023-04-08T13:08:19.288Z,55.48
2023-04-08T13:10:47.299Z,55.19
2023-04-08T13:13:15.167Z,55.07
2023-04-08T13:15:44.794Z,55.08
2023-04-08T13:18:12.599Z,54.85
2023-04-08T13:20:40.480Z,54.62
2023-04-08T13:23:08.342Z,54.34
2023-04-08T13:25:36.136Z,54.31
2023-04-08T13:28:04.001Z,54.07
2023-04-08T13:30:32.215Z,53.62
2023-04-08T13:33:01.803Z,53.43
2023-04-08T13:35:29.707Z,53.80
2023-04-08T13:37:57.589Z,53.44
2023-04-08T13:40:25.379Z,53.41
2023-04-08T13:42:53.287Z,53.26
2023-04-08T13:45:21.430Z,53.04
2023-04-08T13:47:49.519Z,53.02
2023-04-08T13:50:18.744Z,52.81
2023-04-08T13:52:46.728Z,52.28
2023-04-08T13:55:14.551Z,52.38
2023-04-08T13:57:42.340Z,51.75
2023-04-08T14:00:11.481Z,51.73
2023-04-08T14:02:39.472Z,51.63
2023-04-08T14:05:08.621Z,51.43
2023-04-08T14:07:37.807Z,51.22
2023-04-08T14:10:07.125Z,51.13
2023-04-08T14:12:35.026Z,50.96
2023-04-08T14:15:03.605Z,50.58
2023-04-08T14:17:32.056Z,50.32
2023-04-08T14:20:01.040Z,50.71
2023-04-08T14:22:28.897Z,50.34
2023-04-08T14:24:58.074Z,50.14
2023-04-08T14:27:26.284Z,49.65
2023-04-08T14:29:54.091Z,49.78
2023-04-08T14:32:22.106Z,49.43
2023-04-08T14:34:50.078Z,49.11
2023-04-08T14:37:19.582Z,49.10
2023-04-08T14:39:47.500Z,48.92
2023-04-08T14:42:18.249Z,48.62
2023-04-08T14:44:46.053Z,48.89
2023-04-08T14:47:13.882Z,48.65
2023-04-08T14:49:41.643Z,48.70
2023-04-08T14:52:09.474Z,48.23
2023-04-08T14:54:37.638Z,47.96
2023-04-08T14:57:05.503Z,47.80
2023-04-08T14:59:34.637Z,48.01
2023-04-08T15:02:02.489Z,47.65
2023-04-08T15:04:30.505Z,47.34
2023-04-08T15:06:58.388Z,47.26
2023-04-08T15:09:26.358Z,47.25
2023-04-08T15:11:54.149Z,46.88
2023-04-08T15:14:21.901Z,47.07
2023-04-08T15:16:51.402Z,46.77
2023-04-08T15:19:19.829Z,46.39
2023-04-08T15:21:47.720Z,46.35
2023-04-08T15:24:15.719Z,46.33
2023-04-08T15:26:43.535Z,46.30
2023-04-08T15:29:11.335Z,45.87
2023-04-08T15:31:39.151Z,46.02
2023-04-08T15:34:08.341Z,45.49
2023-04-08T15:36:37.806Z,45.34
2023-04-08T15:39:06.066Z,44.97
2023-04-08T15:41:33.978Z,44.95
2023-04-08T15:44:01.921Z,44.68
2023-04-08T15:46:29.769Z,44.44
2023-04-08T15:48:58.368Z,44.47
2023-04-08T15:51:28.977Z,44.32
2023-04-08T15:53:57.450Z,43.96
2023-04-08T15:56:27.008Z,43.97
2023-04-08T15:58:54.956Z,43.71
2023-04-08T16:01:22.710Z,43.66
2023-04-08T16:03:50.591Z,43.21
2023-04-08T16:06:18.566Z,43.35
2023-04-08T16:08:48.495Z,42.96
2023-04-08T16:11:17.578Z,42.87
2023-04-08T16:13:45.529Z,43.12
2023-04-08T16:16:13.429Z,43.00
2023-04-08T16:18:42.086Z,42.94
2023-04-08T16:21:09.860Z,42.76
2023-04-08T16:23:38.446Z,42.53
2023-04-08T16:26:08.801Z,42.44
2023-04-08T16:28:36.863Z,42.47
2023-04-08T16:31:04.828Z,42.20
2023-04-08T16:33:33.440Z,42.39
2023-04-08T16:36:03.417Z,42.02
2023-04-08T16:38:31.417Z,41.79
2023-04-08T16:40:59.478Z,42.23
2023-04-08T16:43:28.643Z,41.90
2023-04-08T16:45:57.165Z,41.51
2023-04-08T16:48:24.991Z,41.44
2023-04-08T16:50:52.739Z,41.30
2023-04-08T16:53:20.717Z,41.37
2023-04-08T16:55:48.640Z,41.79
2023-04-08T16:58:16.470Z,41.13
2023-04-08T17:00:45.639Z,41.04
2023-04-08T17:03:13.861Z,41.39
2023-04-08T17:05:42.336Z,41.46
2023-04-08T17:08:10.182Z,41.21
2023-04-08T17:10:38.135Z,41.08
2023-04-08T17:13:06.115Z,40.70
2023-04-08T17:15:36.029Z,40.80
2023-04-08T17:18:05.486Z,40.95
2023-04-08T17:20:33.228Z,40.71
2023-04-08T17:23:00.980Z,40.71
2023-04-08T17:25:28.875Z,40.60
2023-04-08T17:27:57.931Z,40.68
2023-04-08T17:30:25.845Z,40.29
2023-04-08T17:32:53.616Z,40.24
2023-04-08T17:35:22.813Z,39.95
2023-04-08T17:37:50.625Z,40.50
2023-04-08T17:40:18.745Z,40.48
2023-04-08T17:42:46.615Z,39.96
2023-04-08T17:45:15.018Z,40.28
2023-04-08T17:47:44.237Z,40.29
2023-04-08T17:50:12.237Z,40.46
2023-04-08T17:52:44.059Z,40.31
2023-04-08T17:55:11.800Z,39.56
2023-04-08T17:57:39.871Z,40.21
2023-04-08T18:00:08.670Z,39.86
2023-04-08T18:02:37.309Z,40.06
2023-04-08T18:05:06.588Z,39.63
2023-04-08T18:07:34.490Z,39.54
2023-04-08T18:10:03.701Z,39.93
2023-04-08T18:12:31.663Z,39.32
2023-04-08T18:15:00.101Z,39.44
2023-04-08T18:17:28.801Z,39.63
2023-04-08T18:19:56.556Z,39.17
2023-04-08T18:22:24.411Z,39.29
2023-04-08T18:24:52.245Z,39.57
2023-04-08T18:27:21.584Z,39.53
2023-04-08T18:29:49.314Z,39.29
2023-04-08T18:32:17.302Z,39.19
2023-04-08T18:34:45.048Z,39.70
2023-04-08T18:37:13.150Z,39.52
2023-04-08T18:39:41.496Z,39.41
2023-04-08T18:42:09.257Z,39.04
2023-04-08T18:44:38.745Z,39.14
2023-04-08T18:47:07.176Z,39.16
2023-04-08T18:49:35.461Z,39.26
2023-04-08T18:52:03.596Z,38.92
2023-04-08T18:54:31.843Z,39.00
2023-04-08T18:56:59.924Z,39.11
2023-04-08T18:59:29.903Z,39.10
2023-04-08T19:01:59.061Z,38.64
2023-04-08T19:04:27.465Z,38.85
2023-04-08T19:06:55.480Z,38.74
2023-04-08T19:09:23.513Z,38.81
2023-04-08T19:11:51.373Z,38.79
2023-04-08T19:14:19.214Z,38.60
2023-04-08T19:16:47.002Z,38.97
2023-04-08T19:19:16.271Z,38.84
2023-04-08T19:21:44.341Z,38.81
2023-04-08T19:24:12.155Z,38.67
2023-04-08T19:26:39.884Z,38.68
2023-04-08T19:29:09.363Z,38.62
2023-04-08T19:31:37.778Z,38.83
2023-04-08T19:34:05.783Z,38.72
2023-04-08T19:36:34.873Z,38.46
2023-04-08T19:39:03.617Z,38.72
2023-04-08T19:41:31.457Z,38.72
2023-04-08T19:43:59.263Z,38.33
2023-04-08T19:46:27.073Z,38.37
2023-04-08T19:48:56.239Z,38.71
2023-04-08T19:51:24.317Z,38.43
2023-04-08T19:53:55.333Z,38.51
2023-04-08T19:56:23.050Z,38.36
2023-04-08T19:58:51.026Z,38.63
2023-04-08T20:01:19.335Z,38.25
2023-04-08T20:03:50.537Z,38.19
2023-04-08T20:06:18.740Z,38.38
2023-04-08T20:08:46.956Z,38.19
2023-04-08T20:11:16.086Z,38.65
2023-04-08T20:13:43.961Z,38.11
2023-04-08T20:16:11.758Z,38.50
2023-04-08T20:18:39.743Z,38.19
2023-04-08T20:21:10.117Z,38.08
2023-04-08T20:23:43.991Z,38.49
2023-04-08T20:26:12.649Z,38.39
2023-04-08T20:28:43.870Z,38.43
2023-04-08T20:31:11.726Z,38.06
2023-04-08T20:33:43.764Z,38.09
2023-04-08T20:36:13.684Z,38.02
2023-04-08T20:38:42.486Z,38.21
2023-04-08T20:41:11.428Z,38.35
2023-04-08T20:43:39.419Z,38.25
2023-04-08T20:46:09.253Z,38.22
2023-04-08T20:48:37.244Z,38.07
2023-04-08T20:51:05.401Z,38.16
2023-04-08T20:53:34.482Z,38.23
2023-04-08T20:56:03.117Z,38.32
2023-04-08T20:58:31.157Z,38.43
2023-04-08T21:00:59.815Z,37.98
2023-04-08T21:03:29.185Z,38.46
2023-04-08T21:05:57.571Z,38.43
2023-04-08T21:08:25.394Z,38.24
2023-04-08T21:10:54.302Z,38.11
2023-04-08T21:13:22.199Z,38.21
2023-04-08T21:15:50.121Z,38.12
2023-04-08T21:18:17.905Z,37.96
2023-04-08T21:20:47.089Z,38.13
2023-04-08T21:23:15.041Z,38.22
2023-04-08T21:25:42.785Z,38.36
2023-04-08T21:28:10.484Z,38.31
2023-04-08T21:30:38.617Z,37.99
2023-04-08T21:33:06.497Z,38.10
2023-04-08T21:35:34.380Z,38.28
2023-04-08T21:38:03.523Z,37.84
2023-04-08T21:40:31.342Z,38.12
2023-04-08T21:42:59.109Z,38.00
2023-04-08T21:45:26.979Z,38.19
2023-04-08T21:47:55.188Z,37.95
2023-04-08T21:50:23.099Z,38.19
2023-04-08T21:52:51.023Z,38.28
2023-04-08T21:55:20.267Z,38.08
2023-04-08T21:57:48.964Z,38.45
2023-04-08T22:00:16.854Z,38.24
2023-04-08T22:02:45.275Z,38.24
2023-04-08T22:05:13.480Z,38.26
2023-04-08T22:07:41.727Z,38.29
2023-04-08T22:10:10.320Z,38.02
2023-04-08T22:12:39.517Z,38.25
2023-04-08T22:15:08.694Z,38.21
2023-04-08T22:17:36.896Z,38.07
2023-04-08T22:20:05.093Z,38.21
2023-04-08T22:22:32.866Z,38.38
2023-04-08T22:25:00.647Z,38.01
2023-04-08T22:27:29.199Z,38.21
2023-04-08T22:29:58.333Z,38.23
2023-04-08T22:32:26.149Z,38.15
2023-04-08T22:34:54.011Z,38.06
2023-04-08T22:37:21.798Z,38.13
2023-04-08T22:39:49.608Z,38.25
2023-04-08T22:42:17.508Z,38.20
2023-04-08T22:44:45.465Z,38.31
2023-04-08T22:47:14.983Z,38.23
2023-04-08T22:49:43.574Z,38.13
2023-04-08T22:52:11.598Z,38.15
2023-04-08T22:54:39.386Z,38.25
2023-04-08T22:57:07.262Z,38.28
2023-04-08T22:59:35.087Z,38.22
2023-04-08T23:02:03.169Z,38.12
2023-04-08T23:04:32.471Z,38.42
2023-04-08T23:07:00.377Z,38.43
2023-04-08T23:09:28.381Z,38.24
2023-04-08T23:11:56.400Z,38.50
2023-04-08T23:14:24.180Z,38.27
2023-04-08T23:16:52.044Z,38.38
2023-04-08T23:19:19.942Z,38.32
2023-04-08T23:21:49.113Z,38.27
2023-04-08T23:24:16.939Z,38.23
2023-04-08T23:26:45.399Z,38.42
2023-04-08T23:29:13.214Z,38.36
2023-04-08T23:31:41.219Z,38.43
2023-04-08T23:34:09.054Z,38.47
2023-04-08T23:36:36.881Z,38.43
2023-04-08T23:39:05.944Z,38.50
2023-04-08T23:41:33.855Z,38.53
2023-04-08T23:44:01.961Z,38.46
2023-04-08T23:46:29.763Z,38.49
2023-04-08T23:48:57.751Z,38.22
2023-04-08T23:51:25.958Z,38.51
2023-04-08T23:53:53.851Z,38.40
2023-04-08T23:56:23.868Z,38.46
2023-04-08T23:58:51.869Z,38.41
